createdAt,value
2022-10-28T00:00:44.052Z,71.77
2022-10-28T00:06:11.725Z,71.75
2022-10-28T00:11:34.542Z,71.82
2022-10-28T00:16:55.232Z,72.05
2022-10-28T00:22:15.766Z,71.69
2022-10-28T00:27:36.549Z,71.63
2022-10-28T00:32:57.133Z,72.00
2022-10-28T00:38:17.679Z,72.06
2022-10-28T00:43:47.177Z,71.54
2022-10-28T00:49:21.382Z,71.76
2022-10-28T00:54:43.916Z,71.63
2022-10-28T01:00:07.032Z,71.68
2022-10-28T01:05:32.308Z,71.80
2022-10-28T01:11:08.380Z,71.69
2022-10-28T01:16:45.457Z,71.77
2022-10-28T01:28:06.622Z,71.26
2022-10-28T01:33:36.507Z,71.87
2022-10-28T01:39:10.553Z,71.33
2022-10-28T01:45:01.346Z,71.07
2022-10-28T01:50:29.510Z,71.46
2022-10-28T01:55:54.040Z,71.60
2022-10-28T02:01:15.940Z,71.67
2022-10-28T02:06:38.239Z,71.45
2022-10-28T02:12:07.812Z,71.50
2022-10-28T02:17:47.467Z,71.85
2022-10-28T02:23:29.366Z,71.54
2022-10-28T02:28:57.641Z,71.59
2022-10-28T02:34:24.624Z,71.75
2022-10-28T02:39:52.461Z,71.63
2022-10-28T02:45:21.174Z,71.53
2022-10-28T02:50:46.182Z,71.76
2022-10-28T02:56:09.505Z,72.30
2022-10-28T03:01:30.190Z,71.97
2022-10-28T03:06:50.803Z,71.75
2022-10-28T03:12:11.977Z,71.30
2022-10-28T03:17:32.846Z,71.40
2022-10-28T03:22:53.648Z,71.85
2022-10-28T03:28:14.577Z,71.79
2022-10-28T03:33:35.501Z,71.33
2022-10-28T03:38:56.525Z,71.48
2022-10-28T03:44:16.975Z,71.12
2022-10-28T03:49:37.659Z,71.08
2022-10-28T03:54:58.363Z,71.23
2022-10-28T04:00:19.617Z,70.94
2022-10-28T04:05:40.118Z,71.13
2022-10-28T04:11:00.718Z,71.39
2022-10-28T04:16:21.249Z,71.62
2022-10-28T04:21:41.975Z,71.66
2022-10-28T04:27:02.469Z,71.70
2022-10-28T04:32:23.152Z,71.67
2022-10-28T04:37:43.816Z,71.54
2022-10-28T04:43:08.513Z,71.73
2022-10-28T04:48:30.750Z,71.73
2022-10-28T04:53:51.465Z,71.48
2022-10-28T04:59:12.268Z,71.31
2022-10-28T05:04:32.846Z,71.11
2022-10-28T05:09:53.488Z,71.44
2022-10-28T05:15:15.131Z,71.34
2022-10-28T05:20:35.812Z,71.36
2022-10-28T05:25:56.370Z,71.33
2022-10-28T05:31:17.794Z,71.51
2022-10-28T05:36:38.748Z,71.11
2022-10-28T05:41:59.546Z,70.66
2022-10-28T05:47:20.114Z,70.63
2022-10-28T05:52:40.713Z,70.80
2022-10-28T05:58:01.551Z,70.69
2022-10-28T06:03:24.097Z,71.17
2022-10-28T06:08:49.058Z,71.11
2022-10-28T06:14:08.300Z,71.31
2022-10-28T06:19:28.779Z,71.36
2022-10-28T06:24:49.429Z,71.75
2022-10-28T06:30:10.801Z,71.50
2022-10-28T06:35:31.640Z,71.69
2022-10-28T06:40:52.844Z,72.20
2022-10-28T06:46:13.828Z,72.28
2022-10-28T06:51:36.029Z,72.57
2022-10-28T06:56:59.643Z,72.84
2022-10-28T07:02:20.685Z,72.73
2022-10-28T07:07:41.199Z,72.61
2022-10-28T07:13:01.856Z,72.33
2022-10-28T07:18:23.634Z,72.84
2022-10-28T07:23:46.775Z,72.83
2022-10-28T07:29:07.752Z,72.65
2022-10-28T07:34:28.277Z,72.82
2022-10-28T07:39:50.246Z,75.53
2022-10-28T07:45:11.079Z,78.23
2022-10-28T07:50:31.915Z,74.35
2022-10-28T07:56:01.342Z,73.36
2022-10-28T08:01:22.696Z,73.35
2022-10-28T08:06:44.377Z,72.91
2022-10-28T08:12:05.858Z,73.45
2022-10-28T08:17:26.587Z,73.52
2022-10-28T08:22:47.490Z,75.15
2022-10-28T08:28:08.097Z,74.72
2022-10-28T08:33:28.519Z,74.24
2022-10-28T08:38:49.192Z,74.35
2022-10-28T08:44:15.836Z,74.67
2022-10-28T08:49:42.462Z,74.02
2022-10-28T08:55:07.738Z,73.29
2022-10-28T09:00:31.582Z,73.78
2022-10-28T09:06:11.034Z,73.73
2022-10-28T09:12:07.008Z,73.88
2022-10-28T09:17:53.457Z,73.88
2022-10-28T09:23:29.810Z,73.98
2022-10-28T09:29:18.513Z,73.75
2022-10-28T09:35:06.476Z,73.52
2022-10-28T09:40:33.945Z,73.42
2022-10-28T09:46:01.010Z,73.45
2022-10-28T09:52:01.830Z,73.22
2022-10-28T09:57:29.515Z,73.25
2022-10-28T10:02:55.444Z,73.18
2022-10-28T10:08:19.045Z,72.97
2022-10-28T10:13:43.468Z,72.88
2022-10-28T10:19:07.519Z,72.74
2022-10-28T10:24:36.086Z,72.47
2022-10-28T10:29:58.334Z,72.57
2022-10-28T10:35:24.856Z,71.98
2022-10-28T10:40:52.921Z,71.97
2022-10-28T10:46:16.452Z,71.55
2022-10-28T10:51:40.185Z,71.73
2022-10-28T10:57:22.772Z,71.28
2022-10-28T11:02:49.019Z,71.05
2022-10-28T11:08:26.643Z,70.79
2022-10-28T11:13:49.252Z,70.62
2022-10-28T11:19:24.196Z,70.17
2022-10-28T11:25:00.304Z,69.78
2022-10-28T11:30:29.504Z,69.50
2022-10-28T11:36:15.247Z,68.88
2022-10-28T11:41:53.579Z,69.26
2022-10-28T11:47:50.578Z,68.88
2022-10-28T11:53:37.266Z,69.11
2022-10-28T11:59:33.858Z,68.49
2022-10-28T12:05:12.994Z,68.02
2022-10-28T12:10:46.414Z,68.55
2022-10-28T12:16:13.213Z,68.57
2022-10-28T12:21:42.194Z,68.59
2022-10-28T12:27:25.669Z,68.45
2022-10-28T12:32:49.944Z,68.68
2022-10-28T12:38:16.719Z,68.90
2022-10-28T12:43:42.631Z,68.93
2022-10-28T12:49:11.682Z,68.72
2022-10-28T12:54:53.654Z,68.83
2022-10-28T13:00:28.137Z,68.39
2022-10-28T13:05:57.709Z,68.24
2022-10-28T13:11:21.401Z,68.22
2022-10-28T13:17:08.343Z,68.01
2022-10-28T13:22:55.461Z,67.72
2022-10-28T13:28:19.356Z,67.90
2022-10-28T13:33:50.675Z,67.91
2022-10-28T13:39:24.932Z,67.69
2022-10-28T13:44:55.457Z,67.72
2022-10-28T13:50:22.454Z,67.75
2022-10-28T13:55:45.034Z,67.43
2022-10-28T14:01:43.463Z,67.58
2022-10-28T14:07:17.430Z,67.78
2022-10-28T14:12:43.376Z,67.63
2022-10-28T14:24:09.303Z,68.07
2022-10-28T14:29:30.231Z,68.10
2022-10-28T14:34:51.177Z,68.10
2022-10-28T14:40:23.595Z,68.16
2022-10-28T14:46:13.893Z,68.25
2022-10-28T14:51:41.153Z,68.36
2022-10-28T14:57:01.899Z,68.41
2022-10-28T15:02:28.636Z,68.55
2022-10-28T15:07:50.102Z,68.73
2022-10-28T15:13:16.755Z,68.59
2022-10-28T15:18:47.201Z,68.68
2022-10-28T15:24:13.397Z,68.71
2022-10-28T15:29:34.606Z,68.87
2022-10-28T15:34:55.636Z,68.94
2022-10-28T15:40:28.912Z,68.74
2022-10-28T15:45:50.142Z,68.86
2022-10-28T15:51:19.234Z,68.82
2022-10-28T15:57:00.404Z,68.77
2022-10-28T16:02:43.278Z,69.04
2022-10-28T16:08:08.086Z,69.14
2022-10-28T16:13:48.169Z,68.95
2022-10-28T16:19:17.296Z,68.96
2022-10-28T16:24:38.105Z,68.94
2022-10-28T16:29:58.890Z,69.05
2022-10-28T16:35:22.029Z,68.95
2022-10-28T16:40:51.342Z,69.13
2022-10-28T16:46:13.525Z,68.93
2022-10-28T16:51:34.519Z,68.92
2022-10-28T16:56:55.078Z,69.31
2022-10-28T17:02:22.564Z,69.53
2022-10-28T17:07:43.597Z,69.62
2022-10-28T17:13:04.298Z,70.12
2022-10-28T17:18:25.121Z,70.14
2022-10-28T17:23:45.753Z,69.88
2022-10-28T17:29:07.297Z,69.90
2022-10-28T17:34:27.987Z,70.04
2022-10-28T17:39:48.768Z,70.17
2022-10-28T17:45:11.329Z,70.42
2022-10-28T17:50:31.965Z,70.43
2022-10-28T17:55:59.390Z,70.25
2022-10-28T18:01:20.229Z,70.25
2022-10-28T18:06:42.283Z,70.65
2022-10-28T18:12:03.464Z,71.17
2022-10-28T18:17:24.466Z,70.75
2022-10-28T18:22:45.796Z,70.85
2022-10-28T18:28:06.301Z,71.19
2022-10-28T18:33:32.325Z,70.64
2022-10-28T18:38:53.428Z,70.70
2022-10-28T18:44:17.055Z,70.48
2022-10-28T18:49:38.164Z,70.67
2022-10-28T18:55:00.570Z,70.52
2022-10-28T19:00:21.492Z,70.78
2022-10-28T19:05:42.437Z,71.02
2022-10-28T19:11:03.582Z,70.64
2022-10-28T19:16:27.164Z,70.59
2022-10-28T19:21:48.360Z,70.64
2022-10-28T19:27:09.063Z,71.12
2022-10-28T19:32:30.665Z,71.04
2022-10-28T19:37:55.504Z,70.87
2022-10-28T19:43:16.221Z,71.14
2022-10-28T19:48:38.964Z,70.98
2022-10-28T19:54:01.875Z,71.10
2022-10-28T19:59:22.911Z,71.27
2022-10-28T20:04:43.757Z,71.07
2022-10-28T20:10:05.187Z,71.38
2022-10-28T20:15:25.935Z,71.44
2022-10-28T20:20:46.564Z,71.68
2022-10-28T20:26:07.633Z,71.47
2022-10-28T20:31:30.186Z,71.55
2022-10-28T20:36:51.276Z,71.14
2022-10-28T20:42:11.961Z,71.49
2022-10-28T20:47:32.554Z,71.81
2022-10-28T20:52:53.352Z,71.65
2022-10-28T20:58:14.448Z,71.97
2022-10-28T21:03:35.053Z,71.41
2022-10-28T21:08:56.763Z,71.61
2022-10-28T21:14:17.568Z,71.62
2022-10-28T21:19:38.423Z,71.93
2022-10-28T21:24:59.045Z,72.04
2022-10-28T21:30:19.743Z,72.60
2022-10-28T21:35:40.810Z,71.94
2022-10-28T21:41:22.904Z,71.87
2022-10-28T21:46:43.880Z,72.15
2022-10-28T21:52:13.889Z,72.23
2022-10-28T21:57:34.501Z,72.01
2022-10-28T22:02:55.124Z,72.06
2022-10-28T22:08:16.435Z,72.02
2022-10-28T22:13:37.403Z,72.12
2022-10-28T22:18:59.464Z,72.59
2022-10-28T22:24:20.380Z,72.62
2022-10-28T22:29:41.094Z,72.09
2022-10-28T22:35:01.820Z,72.29
2022-10-28T22:40:22.631Z,72.31
2022-10-28T22:45:43.406Z,72.67
2022-10-28T22:51:05.159Z,72.56
2022-10-28T22:56:27.547Z,72.08
2022-10-28T23:01:48.390Z,72.23
2022-10-28T23:07:09.332Z,72.35
2022-10-28T23:12:29.897Z,72.35
2022-10-28T23:17:51.602Z,72.65
2022-10-28T23:23:12.158Z,72.50
2022-10-28T23:28:33.013Z,72.32
2022-10-28T23:33:54.983Z,72.40
2022-10-28T23:39:15.599Z,72.38
2022-10-28T23:44:36.326Z,72.62
2022-10-28T23:49:56.907Z,72.72
2022-10-28T23:55:17.608Z,72.60
